Terminal Aerodrome Forecast
Issued by NWS

Home | Current Version | Previous Version | Text Only | Print | Product List | Glossary On
Versions: 1 2 3 4 5 6 7 8 9 10 11 12 13 14 15 16
000
FTUS43 KAPX 031138
TAFAPN
TAF
KAPN 031138Z 0312/0412 21004KT P6SM SCT100
     FM031400 20010G19KT P6SM SCT100
     FM040000 18007KT P6SM SCT120
     FM040300 18007KT P6SM BKN120 WS020/22035KT
     FM040700 22007KT 5SM -SHRA OVC080 WS020/24040KT=

USA.gov is the U.S. government's official web portal to all federal, state and local government web resources and services.